createdAt,value
2023-03-25T00:01:26.207Z,0.50
2023-03-25T00:03:54.530Z,0.70
2023-03-25T00:06:22.781Z,0.68
2023-03-25T00:08:51.113Z,0.20
2023-03-25T00:11:19.368Z,0.55
2023-03-25T00:13:48.702Z,0.50
2023-03-25T00:16:19.174Z,0.47
2023-03-25T00:18:50.070Z,0.28
2023-03-25T00:21:19.095Z,0.88
2023-03-25T00:23:47.558Z,0.70
2023-03-25T00:26:16.564Z,0.70
2023-03-25T00:28:45.070Z,0.38
2023-03-25T00:31:15.228Z,0.52
2023-03-25T00:33:43.875Z,0.20
2023-03-25T00:36:15.317Z,0.60
2023-03-25T00:38:45.787Z,0.35
2023-03-25T00:41:17.659Z,0.52
2023-03-25T00:43:46.456Z,0.40
2023-03-25T00:46:14.855Z,0.60
2023-03-25T00:48:43.423Z,0.50
2023-03-25T00:51:14.800Z,0.47
2023-03-25T00:53:43.108Z,0.40
2023-03-25T00:56:12.339Z,0.45
2023-03-25T00:58:41.468Z,0.32
2023-03-25T01:01:13.406Z,0.52
2023-03-25T01:03:44.155Z,0.90
2023-03-25T01:06:15.900Z,0.60
2023-03-25T01:08:46.047Z,0.68
2023-03-25T01:11:20.999Z,0.50
2023-03-25T01:13:49.883Z,0.38
2023-03-25T01:16:18.206Z,0.50
2023-03-25T01:18:46.435Z,0.60
2023-03-25T01:21:16.303Z,0.63
2023-03-25T01:23:44.616Z,0.63
2023-03-25T01:26:14.336Z,0.73
2023-03-25T01:28:42.827Z,0.80
2023-03-25T01:31:13.444Z,0.35
2023-03-25T01:33:42.140Z,0.43
2023-03-25T01:36:13.130Z,0.63
2023-03-25T01:38:44.012Z,0.63
2023-03-25T01:41:12.393Z,0.40
2023-03-25T01:43:41.011Z,0.57
2023-03-25T01:46:15.420Z,0.82
2023-03-25T01:48:50.125Z,0.50
2023-03-25T01:51:21.623Z,0.65
2023-03-25T01:53:53.359Z,0.63
2023-03-25T01:56:25.390Z,0.80
2023-03-25T01:58:56.860Z,0.80
2023-03-25T02:01:26.830Z,0.45
2023-03-25T02:04:03.211Z,0.70
2023-03-25T02:06:39.413Z,0.50
2023-03-25T02:09:09.429Z,0.73
2023-03-25T02:11:37.973Z,0.65
2023-03-25T02:14:10.874Z,0.40
2023-03-25T02:16:47.996Z,0.65
2023-03-25T02:19:55.034Z,1.00
2023-03-25T02:23:11.688Z,0.93
2023-03-25T02:26:19.007Z,0.90
2023-03-25T02:28:53.393Z,0.90
2023-03-25T02:31:48.506Z,0.68
2023-03-25T02:34:39.449Z,0.90
2023-03-25T02:37:38.463Z,0.90
2023-03-25T02:40:13.139Z,0.60
2023-03-25T02:42:47.952Z,0.80
2023-03-25T02:45:21.190Z,1.00
2023-03-25T02:47:53.264Z,0.70
2023-03-25T02:50:27.342Z,0.60
2023-03-25T02:52:59.697Z,1.20
2023-03-25T02:55:31.764Z,1.10
2023-03-25T02:58:02.006Z,0.88
2023-03-25T03:00:31.653Z,1.00
2023-03-25T03:03:02.540Z,0.80
2023-03-25T03:05:32.673Z,0.90
2023-03-25T03:08:19.697Z,0.93
2023-03-25T03:10:57.280Z,0.90
2023-03-25T03:13:35.861Z,0.93
2023-03-25T03:16:13.452Z,1.00
2023-03-25T03:18:52.046Z,0.85
2023-03-25T03:21:24.402Z,0.93
2023-03-25T03:23:59.440Z,1.00
2023-03-25T03:26:39.346Z,0.95
2023-03-25T03:29:13.703Z,0.90
2023-03-25T03:32:06.186Z,1.20
2023-03-25T03:34:43.403Z,0.95
2023-03-25T03:37:15.118Z,1.13
2023-03-25T03:39:45.268Z,1.42
2023-03-25T03:42:20.370Z,1.08
2023-03-25T03:44:53.376Z,0.85
2023-03-25T03:47:26.359Z,1.02
2023-03-25T03:49:59.731Z,1.40
2023-03-25T03:52:34.457Z,1.10
2023-03-25T03:55:06.875Z,1.15
2023-03-25T03:57:42.940Z,1.20
2023-03-25T04:00:17.327Z,1.13
2023-03-25T04:02:49.720Z,1.52
2023-03-25T04:05:20.836Z,1.02
2023-03-25T04:07:57.157Z,1.77
2023-03-25T04:10:40.253Z,1.10
2023-03-25T04:13:14.070Z,1.40
2023-03-25T04:15:42.767Z,1.70
2023-03-25T04:18:12.191Z,1.30
2023-03-25T04:20:45.022Z,1.38
2023-03-25T04:23:16.167Z,1.10
2023-03-25T04:25:47.864Z,1.10
2023-03-25T04:28:18.276Z,1.25
2023-03-25T04:30:46.813Z,1.10
2023-03-25T04:33:15.307Z,1.25
2023-03-25T04:35:43.621Z,1.58
2023-03-25T04:38:11.988Z,1.25
2023-03-25T04:40:41.248Z,1.10
2023-03-25T04:43:09.693Z,1.65
2023-03-25T04:45:39.802Z,1.00
2023-03-25T04:48:14.967Z,1.33
2023-03-25T04:50:43.514Z,1.35
2023-03-25T04:53:11.897Z,1.10
2023-03-25T04:55:48.284Z,1.48
2023-03-25T04:58:16.986Z,1.30
2023-03-25T05:00:50.080Z,1.60
2023-03-25T05:03:24.342Z,1.30
2023-03-25T05:05:53.633Z,1.65
2023-03-25T05:08:22.946Z,1.27
2023-03-25T05:10:51.460Z,1.63
2023-03-25T05:13:20.014Z,1.20
2023-03-25T05:15:49.961Z,1.67
2023-03-25T05:18:18.626Z,1.75
2023-03-25T05:20:51.167Z,1.60
2023-03-25T05:23:19.814Z,1.52
2023-03-25T05:25:49.557Z,1.23
2023-03-25T05:28:18.698Z,1.25
2023-03-25T05:30:49.247Z,1.20
2023-03-25T05:33:19.118Z,1.20
2023-03-25T05:35:47.726Z,1.20
2023-03-25T05:38:18.544Z,1.40
2023-03-25T05:40:47.794Z,0.85
2023-03-25T05:43:16.737Z,1.20
2023-03-25T05:45:47.185Z,0.90
2023-03-25T05:48:17.029Z,1.45
2023-03-25T05:50:45.498Z,1.00
2023-03-25T05:53:15.648Z,1.42
2023-03-25T05:55:44.306Z,1.63
2023-03-25T05:58:12.681Z,0.90
2023-03-25T06:00:41.212Z,1.55
2023-03-25T06:03:11.209Z,1.30
2023-03-25T06:05:42.376Z,0.98
2023-03-25T06:08:11.370Z,0.93
2023-03-25T06:10:40.983Z,1.20
2023-03-25T06:13:09.412Z,0.80
2023-03-25T06:15:40.803Z,1.23
2023-03-25T06:18:10.793Z,1.15
2023-03-25T06:20:39.206Z,0.88
2023-03-25T06:23:10.180Z,0.93
2023-03-25T06:25:38.402Z,1.00
2023-03-25T06:28:07.176Z,1.05
2023-03-25T06:30:35.493Z,1.10
2023-03-25T06:33:06.271Z,1.00
2023-03-25T06:35:34.723Z,0.80
2023-03-25T06:38:03.738Z,1.02
2023-03-25T06:40:35.165Z,0.95
2023-03-25T06:43:03.495Z,0.93
2023-03-25T06:45:31.827Z,1.42
2023-03-25T06:48:00.553Z,0.85
2023-03-25T06:50:29.265Z,1.48
2023-03-25T06:52:57.500Z,1.13
2023-03-25T06:55:26.115Z,1.20
2023-03-25T06:57:58.057Z,1.10
2023-03-25T07:00:28.522Z,0.90
2023-03-25T07:02:58.534Z,1.40
2023-03-25T07:05:27.019Z,1.30
2023-03-25T07:07:55.422Z,0.80
2023-03-25T07:10:23.704Z,0.95
2023-03-25T07:12:51.899Z,1.40
2023-03-25T07:15:21.835Z,0.73
2023-03-25T07:17:50.184Z,0.80
2023-03-25T07:20:18.772Z,0.95
2023-03-25T07:22:49.300Z,1.02
2023-03-25T07:25:17.632Z,1.08
2023-03-25T07:27:45.903Z,1.00
2023-03-25T07:30:14.749Z,1.05
2023-03-25T07:32:46.132Z,1.45
2023-03-25T07:35:14.465Z,0.70
2023-03-25T07:37:42.712Z,0.57
2023-03-25T07:40:12.126Z,1.13
2023-03-25T07:42:40.712Z,1.00
2023-03-25T07:45:10.086Z,1.48
2023-03-25T07:47:39.669Z,1.02
2023-03-25T07:50:10.856Z,1.33
2023-03-25T07:52:39.237Z,0.88
2023-03-25T07:55:08.641Z,0.73
2023-03-25T07:57:37.288Z,1.05
2023-03-25T08:00:06.956Z,0.80
2023-03-25T08:02:35.342Z,1.65
2023-03-25T08:05:04.960Z,1.23
2023-03-25T08:07:35.329Z,1.20
2023-03-25T08:10:03.699Z,1.10
2023-03-25T08:12:32.324Z,1.13
2023-03-25T08:15:01.109Z,1.20
2023-03-25T08:17:29.419Z,1.30
2023-03-25T08:19:58.348Z,1.10
2023-03-25T08:22:28.993Z,1.02
2023-03-25T08:24:59.056Z,1.55
2023-03-25T08:27:27.643Z,0.90
2023-03-25T08:29:57.322Z,1.02
2023-03-25T08:32:27.454Z,1.00
2023-03-25T08:34:56.467Z,1.08
2023-03-25T08:37:26.153Z,1.30
2023-03-25T08:39:56.187Z,1.27
2023-03-25T08:42:26.284Z,1.05
2023-03-25T08:44:54.742Z,1.00
2023-03-25T08:47:26.235Z,1.13
2023-03-25T08:50:01.040Z,0.68
2023-03-25T08:52:29.698Z,0.90
2023-03-25T08:54:57.935Z,1.10
2023-03-25T08:57:27.780Z,1.48
2023-03-25T08:59:56.014Z,1.02
2023-03-25T09:02:24.447Z,1.10
2023-03-25T09:04:52.672Z,0.80
2023-03-25T09:07:23.395Z,1.10
2023-03-25T09:09:52.274Z,1.15
2023-03-25T09:12:21.923Z,1.00
2023-03-25T09:14:51.830Z,1.05
2023-03-25T09:17:20.248Z,1.00
2023-03-25T09:19:49.027Z,1.08
2023-03-25T09:22:19.558Z,1.45
2023-03-25T09:24:47.833Z,1.08
2023-03-25T09:27:16.202Z,0.90
2023-03-25T09:29:44.656Z,0.85
2023-03-25T09:32:15.165Z,1.27
2023-03-25T09:34:44.030Z,1.35
2023-03-25T09:37:12.378Z,1.10
2023-03-25T09:39:40.832Z,1.55
2023-03-25T09:42:28.406Z,1.17
2023-03-25T09:45:09.880Z,0.98
2023-03-25T09:47:44.601Z,1.10
2023-03-25T09:50:16.463Z,1.10
2023-03-25T09:52:52.296Z,0.90
2023-03-25T09:55:25.970Z,1.10
2023-03-25T09:57:59.023Z,0.98
2023-03-25T10:00:27.792Z,0.85
2023-03-25T10:03:09.116Z,0.80
2023-03-25T10:05:49.222Z,0.90
2023-03-25T10:08:26.613Z,0.90
2023-03-25T10:11:02.689Z,1.33
2023-03-25T10:13:42.407Z,1.67
2023-03-25T10:16:23.142Z,0.90
2023-03-25T10:19:04.987Z,1.02
2023-03-25T10:21:41.384Z,1.13
2023-03-25T10:24:19.901Z,0.90
2023-03-25T10:26:54.309Z,1.13
2023-03-25T10:29:28.849Z,1.02
2023-03-25T10:32:00.734Z,1.15
2023-03-25T10:34:37.079Z,0.90
2023-03-25T10:37:12.707Z,0.80
2023-03-25T10:39:45.518Z,1.45
2023-03-25T10:42:22.024Z,1.00
2023-03-25T10:44:50.312Z,0.75
2023-03-25T10:47:21.560Z,1.38
2023-03-25T10:49:52.593Z,0.75
2023-03-25T10:52:21.350Z,1.20
2023-03-25T10:54:53.115Z,0.95
2023-03-25T10:57:26.639Z,1.13
2023-03-25T11:00:04.992Z,1.05
2023-03-25T11:02:34.822Z,1.13
2023-03-25T11:05:08.856Z,0.98
2023-03-25T11:07:40.201Z,0.88
2023-03-25T11:10:18.088Z,0.80
2023-03-25T11:12:47.858Z,0.80
2023-03-25T11:15:18.765Z,1.20
2023-03-25T11:17:49.109Z,0.70
2023-03-25T11:20:27.179Z,0.95
2023-03-25T11:22:56.667Z,1.15
2023-03-25T11:25:39.957Z,1.45
2023-03-25T11:28:15.569Z,0.88
2023-03-25T11:31:12.248Z,1.20
2023-03-25T11:33:43.072Z,0.98
2023-03-25T11:36:30.403Z,0.80
2023-03-25T11:39:00.610Z,1.30
2023-03-25T11:41:37.415Z,1.45
2023-03-25T11:44:07.515Z,0.88
2023-03-25T11:46:42.808Z,0.95
2023-03-25T11:49:12.951Z,1.30
2023-03-25T11:51:42.975Z,1.30
2023-03-25T11:54:16.550Z,1.00
2023-03-25T11:56:46.417Z,1.13
2023-03-25T11:59:23.199Z,1.20
2023-03-25T12:01:53.901Z,1.33
2023-03-25T12:04:24.148Z,1.15
2023-03-25T12:07:02.032Z,1.25
2023-03-25T12:09:33.075Z,1.25
2023-03-25T12:12:12.423Z,1.13
2023-03-25T12:14:53.419Z,0.93
2023-03-25T12:17:32.974Z,1.15
2023-03-25T12:20:11.122Z,0.68
2023-03-25T12:22:55.539Z,1.20
2023-03-25T12:25:33.891Z,1.30
2023-03-25T12:28:21.332Z,1.08
2023-03-25T12:30:59.137Z,0.70
2023-03-25T12:33:41.802Z,1.30
2023-03-25T12:36:28.515Z,1.00
2023-03-25T12:39:11.814Z,0.80
2023-03-25T12:41:47.486Z,0.63
2023-03-25T12:44:37.977Z,0.90
2023-03-25T12:47:16.206Z,1.10
2023-03-25T12:49:57.987Z,0.80
2023-03-25T12:52:35.995Z,1.30
2023-03-25T12:55:21.754Z,0.77
2023-03-25T12:58:05.149Z,1.13
2023-03-25T13:00:44.139Z,0.60
2023-03-25T13:03:36.601Z,1.30
2023-03-25T13:06:16.873Z,1.15
2023-03-25T13:08:51.743Z,1.10
2023-03-25T13:11:27.420Z,1.23
2023-03-25T13:14:00.091Z,1.10
2023-03-25T13:16:32.274Z,1.00
2023-03-25T13:19:05.786Z,1.15
2023-03-25T13:21:38.198Z,0.93
2023-03-25T13:24:09.092Z,0.70
2023-03-25T13:26:42.184Z,0.98
2023-03-25T13:29:18.419Z,1.00
2023-03-25T13:31:48.897Z,1.30
2023-03-25T13:34:24.827Z,0.70
2023-03-25T13:37:04.868Z,0.63
2023-03-25T13:39:43.443Z,0.82
2023-03-25T13:42:18.199Z,0.40
2023-03-25T13:44:51.513Z,0.63
2023-03-25T13:47:26.602Z,0.60
2023-03-25T13:49:59.183Z,1.10
2023-03-25T13:52:30.074Z,0.90
2023-03-25T13:55:01.673Z,1.60
2023-03-25T13:58:09.288Z,0.65
2023-03-25T14:04:04.044Z,1.00
2023-03-25T14:09:52.710Z,0.70
2023-03-25T14:12:25.223Z,0.70
2023-03-25T14:15:01.583Z,0.80
2023-03-25T14:17:30.998Z,0.90
2023-03-25T14:20:01.500Z,0.88
2023-03-25T14:22:33.996Z,0.70
2023-03-25T14:25:02.958Z,0.77
2023-03-25T14:27:34.364Z,1.20
2023-03-25T14:30:06.333Z,1.05
2023-03-25T14:32:37.860Z,0.70
2023-03-25T14:35:43.414Z,0.90
2023-03-25T14:38:48.550Z,0.90
2023-03-25T14:41:17.224Z,1.00
2023-03-25T14:43:53.360Z,1.13
2023-03-25T14:46:26.267Z,0.80
2023-03-25T14:49:12.173Z,1.05
2023-03-25T14:51:51.740Z,0.95
2023-03-25T14:54:30.140Z,0.88
2023-03-25T14:57:06.728Z,0.70
2023-03-25T14:59:38.367Z,0.77
2023-03-25T15:02:17.906Z,1.00
2023-03-25T15:04:47.275Z,0.70
2023-03-25T15:07:20.891Z,0.75
2023-03-25T15:09:53.847Z,1.45
2023-03-25T15:12:26.693Z,0.68
2023-03-25T15:14:57.722Z,0.80
2023-03-25T15:17:46.716Z,1.15
2023-03-25T15:20:36.233Z,1.00
2023-03-25T15:23:34.650Z,1.15
2023-03-25T15:26:05.030Z,1.00
2023-03-25T15:28:58.252Z,1.10
2023-03-25T15:31:42.275Z,1.33
2023-03-25T15:34:25.643Z,0.93
2023-03-25T15:37:17.189Z,0.70
2023-03-25T15:40:01.007Z,0.63
2023-03-25T15:43:00.506Z,1.20
2023-03-25T15:45:45.555Z,1.13
2023-03-25T15:48:30.135Z,1.52
2023-03-25T15:51:20.072Z,1.08
2023-03-25T15:54:22.195Z,0.65
2023-03-25T15:56:51.588Z,0.95
2023-03-25T15:59:31.824Z,0.70
2023-03-25T16:02:03.324Z,1.05
2023-03-25T16:04:39.624Z,1.02
2023-03-25T16:07:14.347Z,0.50
2023-03-25T16:09:50.616Z,0.60
2023-03-25T16:12:22.530Z,0.50
2023-03-25T16:14:52.432Z,1.05
2023-03-25T16:17:23.315Z,0.93
2023-03-25T16:19:55.159Z,0.95
2023-03-25T16:22:28.522Z,0.35
2023-03-25T16:25:02.462Z,0.40
2023-03-25T16:27:34.896Z,0.60
2023-03-25T16:30:04.175Z,0.70
2023-03-25T16:32:34.275Z,0.55
2023-03-25T16:35:04.805Z,0.77
2023-03-25T16:37:34.131Z,0.70
2023-03-25T16:40:07.890Z,0.88
2023-03-25T16:42:40.441Z,0.50
2023-03-25T16:45:15.596Z,1.02
2023-03-25T16:47:45.645Z,0.45
2023-03-25T16:50:19.951Z,0.55
2023-03-25T16:52:49.178Z,0.30
2023-03-25T16:55:33.927Z,0.63
2023-03-25T16:58:03.557Z,0.50
2023-03-25T17:00:44.100Z,0.98
2023-03-25T17:03:17.942Z,0.75
2023-03-25T17:05:56.904Z,0.40
2023-03-25T17:08:25.441Z,0.43
2023-03-25T17:10:58.949Z,0.93
2023-03-25T17:13:29.644Z,0.90
2023-03-25T17:15:58.651Z,0.50
2023-03-25T17:18:31.705Z,0.63
2023-03-25T17:21:02.057Z,0.45
2023-03-25T17:23:37.404Z,0.60
2023-03-25T17:26:09.087Z,0.60
2023-03-25T17:28:41.547Z,0.55
2023-03-25T17:31:28.229Z,0.60
2023-03-25T17:34:01.733Z,0.63
2023-03-25T17:36:33.033Z,0.80
2023-03-25T17:39:04.263Z,0.55
2023-03-25T17:41:41.642Z,0.60
2023-03-25T17:44:15.665Z,0.65
2023-03-25T17:46:44.188Z,0.70
2023-03-25T17:49:16.930Z,0.52
2023-03-25T17:51:46.661Z,1.10
2023-03-25T17:54:15.122Z,0.50
2023-03-25T17:56:46.964Z,1.00
2023-03-25T17:59:18.232Z,0.85
2023-03-25T18:01:47.727Z,1.00
2023-03-25T18:04:16.341Z,1.40
2023-03-25T18:06:45.320Z,1.48
2023-03-25T18:09:18.101Z,1.50
2023-03-25T18:11:50.453Z,1.42
2023-03-25T18:14:18.709Z,1.13
2023-03-25T18:16:47.154Z,1.80
2023-03-25T18:19:17.800Z,2.65
2023-03-25T18:21:46.750Z,2.45
2023-03-25T18:24:15.468Z,2.05
2023-03-25T18:26:44.998Z,1.52
2023-03-25T18:29:20.024Z,1.20
2023-03-25T18:31:49.037Z,1.20
2023-03-25T18:34:18.106Z,1.80
2023-03-25T18:36:46.733Z,0.63
2023-03-25T18:39:16.819Z,1.00
2023-03-25T18:41:45.559Z,0.88
2023-03-25T18:44:16.310Z,0.95
2023-03-25T18:46:44.737Z,0.93
2023-03-25T18:49:15.451Z,1.30
2023-03-25T18:51:44.023Z,1.27
2023-03-25T18:54:14.085Z,1.17
2023-03-25T18:56:42.662Z,1.17
2023-03-25T18:59:12.912Z,1.00
2023-03-25T19:01:42.741Z,0.75
2023-03-25T19:04:11.396Z,0.60
2023-03-25T19:06:40.109Z,0.57
2023-03-25T19:09:11.619Z,0.93
2023-03-25T19:11:39.965Z,0.68
2023-03-25T19:14:08.328Z,0.57
2023-03-25T19:16:38.830Z,0.68
2023-03-25T19:19:08.892Z,0.52
2023-03-25T19:21:37.169Z,0.77
2023-03-25T19:24:05.777Z,0.63
2023-03-25T19:26:34.167Z,0.15
2023-03-25T19:29:03.518Z,0.68
2023-03-25T19:31:32.089Z,0.50
2023-03-25T19:34:01.268Z,0.30
2023-03-25T19:36:34.838Z,0.35
2023-03-25T19:39:05.836Z,0.40
2023-03-25T19:41:42.826Z,0.70
2023-03-25T19:44:11.235Z,0.52
2023-03-25T19:46:39.667Z,0.22
2023-03-25T19:49:07.962Z,0.50
2023-03-25T19:51:41.727Z,0.43
2023-03-25T19:54:16.834Z,0.35
2023-03-25T19:56:48.565Z,0.63
2023-03-25T19:59:28.465Z,0.30
2023-03-25T20:01:57.294Z,0.43
2023-03-25T20:04:26.557Z,0.17
2023-03-25T20:06:59.315Z,0.30
2023-03-25T20:09:30.311Z,0.45
2023-03-25T20:11:58.729Z,0.75
2023-03-25T20:14:27.274Z,0.30
2023-03-25T20:16:55.667Z,0.40
2023-03-25T20:19:23.909Z,0.65
2023-03-25T20:21:52.360Z,0.30
2023-03-25T20:24:22.490Z,0.50
2023-03-25T20:26:50.772Z,0.22
2023-03-25T20:29:20.114Z,0.40
2023-03-25T20:31:48.430Z,0.40
2023-03-25T20:34:17.007Z,0.28
2023-03-25T20:36:46.789Z,0.63
2023-03-25T20:39:15.142Z,0.60
2023-03-25T20:41:44.943Z,0.90
2023-03-25T20:44:13.700Z,0.60
2023-03-25T20:46:44.305Z,0.25
2023-03-25T20:49:14.296Z,0.30
2023-03-25T20:51:43.653Z,0.20
2023-03-25T20:54:13.406Z,0.13
2023-03-25T20:56:42.283Z,0.63
2023-03-25T20:59:14.160Z,0.35
2023-03-25T21:01:42.880Z,0.60
2023-03-25T21:04:13.702Z,0.50
2023-03-25T21:06:42.181Z,0.60
2023-03-25T21:09:11.496Z,0.22
2023-03-25T21:11:40.042Z,0.40
2023-03-25T21:14:08.733Z,0.55
2023-03-25T21:16:39.705Z,0.50
2023-03-25T21:19:08.390Z,0.20
2023-03-25T21:21:38.574Z,0.57
2023-03-25T21:24:07.811Z,0.38
2023-03-25T21:26:36.818Z,0.50
2023-03-25T21:29:05.413Z,0.40
2023-03-25T21:31:33.790Z,0.47
2023-03-25T21:34:03.665Z,0.25
2023-03-25T21:36:32.614Z,0.20
2023-03-25T21:39:09.150Z,0.52
2023-03-25T21:41:37.639Z,0.55
2023-03-25T21:44:06.883Z,0.47
2023-03-25T21:46:37.051Z,0.82
2023-03-25T21:49:06.935Z,0.30
2023-03-25T21:51:36.058Z,0.40
2023-03-25T21:54:04.426Z,0.45
2023-03-25T21:56:34.949Z,0.32
2023-03-25T21:59:03.683Z,0.52
2023-03-25T22:01:32.690Z,0.60
2023-03-25T22:04:02.534Z,0.40
2023-03-25T22:06:35.772Z,0.50
2023-03-25T22:09:06.278Z,1.00
2023-03-25T22:11:37.552Z,0.60
2023-03-25T22:14:06.852Z,0.82
2023-03-25T22:16:38.531Z,0.43
2023-03-25T22:19:07.666Z,0.70
2023-03-25T22:21:38.325Z,0.45
2023-03-25T22:24:08.578Z,0.40
2023-03-25T22:26:39.479Z,0.52
2023-03-25T22:29:09.416Z,0.40
2023-03-25T22:31:41.248Z,0.68
2023-03-25T22:34:12.471Z,0.50
2023-03-25T22:36:46.436Z,0.28
2023-03-25T22:39:14.675Z,0.45
2023-03-25T22:41:42.802Z,0.40
2023-03-25T22:44:11.326Z,0.47
2023-03-25T22:46:40.484Z,0.45
2023-03-25T22:49:08.916Z,0.47
2023-03-25T22:51:37.311Z,1.08
2023-03-25T22:54:09.803Z,0.55
2023-03-25T22:56:38.392Z,0.60
2023-03-25T22:59:08.482Z,0.60
2023-03-25T23:01:37.254Z,0.60
2023-03-25T23:04:05.707Z,0.47
2023-03-25T23:06:35.782Z,0.65
2023-03-25T23:09:08.617Z,0.55
2023-03-25T23:11:38.251Z,0.20
2023-03-25T23:14:09.169Z,0.57
2023-03-25T23:16:39.297Z,0.40
2023-03-25T23:19:09.714Z,0.90
2023-03-25T23:21:38.215Z,0.40
2023-03-25T23:24:08.551Z,0.38
2023-03-25T23:26:39.385Z,0.68
2023-03-25T23:29:09.850Z,0.35
2023-03-25T23:31:42.366Z,0.60
2023-03-25T23:34:12.667Z,0.57
2023-03-25T23:36:40.887Z,0.10
2023-03-25T23:39:12.576Z,0.38
2023-03-25T23:41:41.043Z,0.50
2023-03-25T23:44:09.340Z,0.45
2023-03-25T23:46:38.201Z,0.50
2023-03-25T23:49:06.794Z,0.20
2023-03-25T23:51:38.379Z,0.60
2023-03-25T23:54:09.042Z,0.52
2023-03-25T23:56:39.488Z,0.73
2023-03-25T23:59:08.044Z,0.40
